Time;durP1;ratioP1;P1;durP2;ratioP2;P2;SDS_P1;SDS_P2;PMS_P1;PMS_P2;Temp;Humidity;BMP_temperature;BMP_pressure;BME280_temperature;BME280_humidity;BME280_pressure;Samples;Min_cycle;Max_cycle;Signal;HPM_P1;HPM_P2
2022/11/12 00:00:01;;;;;;;3.78;2.30;;;;;;;;;;5082071;28;20036;-74
2022/11/12 00:02:27;;;;;;;2.95;2.00;;;;;;;;;;5072199;28;20108;-75
2022/11/12 00:04:53;;;;;;;2.30;2.00;;;;;;;;;;5078732;28;20032;-74
2022/11/12 00:07:19;;;;;;;2.97;1.90;;;;;;;;;;5064298;28;20143;-73
2022/11/12 00:09:45;;;;;;;4.22;1.95;;;;;;;;;;5056376;28;20017;-74
2022/11/12 00:12:11;;;;;;;3.45;1.73;;;;;;;;;;5068307;28;20017;-74
2022/11/12 00:14:37;;;;;;;1.48;1.38;;;;;;;;;;5067660;28;20048;-74
2022/11/12 00:17:03;;;;;;;1.90;1.70;;;;;;;;;;5066549;28;20029;-74
2022/11/12 00:19:29;;;;;;;1.50;1.40;;;;;;;;;;5086307;28;20038;-75
2022/11/12 00:21:55;;;;;;;1.98;1.60;;;;;;;;;;5072252;28;20098;-73
2022/11/12 00:24:22;;;;;;;1.80;1.50;;;;;;;;;;5058461;28;20127;-74
2022/11/12 00:26:48;;;;;;;1.70;1.58;;;;;;;;;;5058231;28;20079;-75
2022/11/12 00:29:14;;;;;;;1.58;1.48;;;;;;;;;;5067402;28;20108;-75
2022/11/12 00:31:40;;;;;;;1.30;1.20;;;;;;;;;;5066292;28;20092;-74
2022/11/12 00:34:06;;;;;;;1.52;1.42;;;;;;;;;;5068385;28;20077;-73
2022/11/12 00:36:33;;;;;;;2.55;1.55;;;;;;;;;;5069255;28;20220;-73
2022/11/12 00:38:59;;;;;;;1.70;1.60;;;;;;;;;;5085292;28;20033;-74
2022/11/12 00:41:25;;;;;;;1.60;1.50;;;;;;;;;;5061721;28;20103;-73
2022/11/12 00:43:51;;;;;;;1.20;1.20;;;;;;;;;;5062664;28;20028;-74
2022/11/12 00:46:17;;;;;;;1.30;1.20;;;;;;;;;;5066624;28;20032;-75
2022/11/12 00:48:43;;;;;;;1.52;1.23;;;;;;;;;;5065614;28;20020;-76
2022/11/12 00:51:09;;;;;;;0.95;0.95;;;;;;;;;;5068130;28;20101;-73
2022/11/12 00:53:35;;;;;;;2.20;2.00;;;;;;;;;;5068544;28;20479;-74
2022/11/12 00:56:02;;;;;;;2.20;1.30;;;;;;;;;;5059083;28;20025;-76
2022/11/12 00:58:29;;;;;;;1.38;1.20;;;;;;;;;;5066830;28;20025;-76
2022/11/12 01:00:55;;;;;;;3.30;1.40;;;;;;;;;;5059621;28;20028;-75
2022/11/12 01:03:21;;;;;;;2.75;1.17;;;;;;;;;;5079338;28;20024;-74
2022/11/12 01:05:48;;;;;;;2.83;1.40;;;;;;;;;;5069115;28;20576;-75
2022/11/12 01:08:14;;;;;;;2.58;1.40;;;;;;;;;;5066866;28;20448;-73
2022/11/12 01:10:40;;;;;;;2.17;1.40;;;;;;;;;;5069305;28;20097;-74
2022/11/12 01:13:06;;;;;;;1.55;1.27;;;;;;;;;;5068374;28;20024;-75
2022/11/12 01:15:33;;;;;;;1.40;1.30;;;;;;;;;;5083366;28;20594;-78
2022/11/12 01:17:59;;;;;;;1.55;1.30;;;;;;;;;;5084665;28;20582;-76
2022/11/12 01:20:25;;;;;;;1.60;1.50;;;;;;;;;;5058222;28;20094;-74
2022/11/12 01:22:51;;;;;;;1.98;1.50;;;;;;;;;;5071453;28;20086;-74
2022/11/12 01:25:17;;;;;;;3.13;1.50;;;;;;;;;;5069144;28;20032;-73
2022/11/12 01:27:43;;;;;;;6.78;2.00;;;;;;;;;;5064765;28;20095;-74
2022/11/12 01:30:10;;;;;;;5.72;2.80;;;;;;;;;;5067622;28;20028;-73
2022/11/12 01:32:36;;;;;;;2.95;1.80;;;;;;;;;;5083054;28;20024;-74
2022/11/12 01:35:02;;;;;;;3.70;2.08;;;;;;;;;;5067414;28;20044;-75
2022/11/12 01:37:29;;;;;;;7.07;2.20;;;;;;;;;;5067158;28;20037;-74
2022/11/12 01:39:55;;;;;;;5.45;2.53;;;;;;;;;;5071187;28;20078;-75
2022/11/12 01:42:23;;;;;;;7.75;2.13;;;;;;;;;;5073282;28;20082;-76
2022/11/12 01:44:52;;;;;;;6.10;2.70;;;;;;;;;;5061277;28;20039;-73
2022/11/12 01:47:29;;;;;;;5.18;2.35;;;;;;;;;;5077404;28;20116;-74
2022/11/12 01:49:57;;;;;;;6.05;2.50;;;;;;;;;;5080618;28;20024;-74
2022/11/12 01:52:29;;;;;;;7.05;2.40;;;;;;;;;;5067592;28;20035;-74
2022/11/12 01:54:57;;;;;;;6.25;2.08;;;;;;;;;;5068493;28;20016;-74
2022/11/12 01:57:25;;;;;;;4.32;2.10;;;;;;;;;;5080916;28;20599;-73
2022/11/12 01:59:54;;;;;;;7.05;2.35;;;;;;;;;;5068512;28;20377;-75
2022/11/12 02:02:21;;;;;;;5.65;1.98;;;;;;;;;;5081712;28;20599;-77
2022/11/12 02:04:48;;;;;;;9.23;2.45;;;;;;;;;;5066894;28;20052;-77
2022/11/12 02:07:16;;;;;;;6.32;2.92;;;;;;;;;;5064452;28;20489;-74
2022/11/12 02:09:42;;;;;;;4.68;2.65;;;;;;;;;;5066331;28;20134;-76
2022/11/12 02:13:56;;;;;;;6.15;2.42;;;;;;;;;;5061478;28;20025;-75
2022/11/12 02:14:54;;;;;;;5.10;2.38;;;;;;;;;;5067324;28;20039;-75
2022/11/12 02:17:20;;;;;;;4.75;1.92;;;;;;;;;;5060600;28;20047;-73
2022/11/12 02:19:46;;;;;;;4.88;2.30;;;;;;;;;;5056231;28;20443;-75
2022/11/12 02:22:12;;;;;;;6.30;2.15;;;;;;;;;;5084900;28;20047;-76
2022/11/12 02:24:38;;;;;;;4.50;2.10;;;;;;;;;;5082616;28;20102;-75
2022/11/12 02:27:05;;;;;;;4.35;2.08;;;;;;;;;;5067886;28;20041;-75
2022/11/12 02:29:31;;;;;;;5.57;2.22;;;;;;;;;;5065429;28;20559;-74
2022/11/12 02:31:58;;;;;;;7.18;2.40;;;;;;;;;;5059487;28;20054;-76
2022/11/12 02:34:24;;;;;;;8.80;2.38;;;;;;;;;;5080100;28;20017;-73
2022/11/12 02:36:50;;;;;;;7.07;2.10;;;;;;;;;;5060764;28;20025;-74
2022/11/12 02:39:16;;;;;;;5.95;2.25;;;;;;;;;;5066232;28;20032;-75
2022/11/12 02:41:42;;;;;;;5.28;2.00;;;;;;;;;;5068338;28;20407;-74
2022/11/12 02:44:08;;;;;;;5.68;2.00;;;;;;;;;;5078998;28;20465;-73
2022/11/12 02:46:34;;;;;;;4.72;2.45;;;;;;;;;;5069781;28;20035;-74
2022/11/12 02:49:00;;;;;;;4.20;2.17;;;;;;;;;;5082153;28;20028;-75
2022/11/12 02:51:26;;;;;;;8.32;2.10;;;;;;;;;;5061410;28;20057;-73
2022/11/12 02:53:52;;;;;;;6.05;2.15;;;;;;;;;;5062107;28;20025;-74
2022/11/12 02:56:19;;;;;;;5.18;1.80;;;;;;;;;;5081585;28;20025;-73
2022/11/12 02:58:45;;;;;;;4.40;2.00;;;;;;;;;;5053683;28;20047;-74
2022/11/12 03:01:11;;;;;;;4.72;1.80;;;;;;;;;;5065596;28;20086;-75
2022/11/12 03:03:37;;;;;;;4.47;2.03;;;;;;;;;;5062320;28;20070;-74
2022/11/12 03:06:03;;;;;;;5.68;2.20;;;;;;;;;;5060695;28;20029;-74
2022/11/12 03:08:29;;;;;;;5.15;2.58;;;;;;;;;;5083428;28;20094;-73
2022/11/12 03:10:55;;;;;;;6.05;2.13;;;;;;;;;;5067472;28;20466;-77
2022/11/12 03:13:21;;;;;;;5.15;2.10;;;;;;;;;;5067553;28;20432;-77
2022/11/12 03:15:47;;;;;;;4.80;2.38;;;;;;;;;;5083739;28;20070;-76
2022/11/12 03:18:14;;;;;;;4.00;2.08;;;;;;;;;;5061952;28;20068;-73
2022/11/12 03:20:40;;;;;;;7.35;2.03;;;;;;;;;;5066971;28;20028;-76
2022/11/12 03:23:07;;;;;;;6.47;2.00;;;;;;;;;;5062416;28;20029;-74
2022/11/12 03:25:34;;;;;;;4.35;2.08;;;;;;;;;;5063817;28;20028;-73
2022/11/12 03:28:02;;;;;;;5.20;1.90;;;;;;;;;;5064695;28;20187;-79
2022/11/12 03:30:29;;;;;;;5.45;2.50;;;;;;;;;;5063163;28;20032;-76
2022/11/12 03:32:55;;;;;;;6.07;2.78;;;;;;;;;;5068151;28;20013;-75
2022/11/12 03:35:22;;;;;;;3.53;2.40;;;;;;;;;;5063997;28;20028;-76
2022/11/12 03:37:48;;;;;;;3.67;1.73;;;;;;;;;;5062170;28;20100;-75
2022/11/12 03:40:16;;;;;;;6.82;2.28;;;;;;;;;;5060794;28;20031;-76
2022/11/12 03:42:46;;;;;;;2.83;1.92;;;;;;;;;;5063021;28;20056;-75
2022/11/12 03:45:12;;;;;;;7.60;2.50;;;;;;;;;;5079868;28;20032;-74
2022/11/12 03:47:43;;;;;;;5.28;2.47;;;;;;;;;;5078419;28;20075;-75
2022/11/12 03:50:09;;;;;;;6.75;2.35;;;;;;;;;;5069530;28;20025;-74
2022/11/12 03:52:35;;;;;;;5.97;2.15;;;;;;;;;;5068979;28;20032;-74
2022/11/12 03:55:01;;;;;;;4.65;2.10;;;;;;;;;;5070813;28;20028;-74
2022/11/12 03:57:27;;;;;;;3.13;2.05;;;;;;;;;;5086893;28;20077;-74
2022/11/12 03:59:53;;;;;;;5.30;2.85;;;;;;;;;;5071678;28;20441;-74
2022/11/12 04:02:19;;;;;;;10.75;2.33;;;;;;;;;;5072492;28;20033;-76
2022/11/12 04:10:15;;;;;;;6.93;2.50;;;;;;;;;;5062812;28;20043;-76
2022/11/12 04:21:49;;;;;;;3.10;2.03;;;;;;;;;;5043720;28;20070;-76
2022/11/12 04:24:01;;;;;;;10.40;2.85;;;;;;;;;;5062663;28;20561;-77
2022/11/12 04:26:27;;;;;;;4.88;2.25;;;;;;;;;;5058069;28;20052;-75
2022/11/12 04:31:38;;;;;;;9.35;3.47;;;;;;;;;;5070512;28;20047;-74
2022/11/12 04:36:48;;;;;;;6.70;2.38;;;;;;;;;;5067976;28;20493;-74
2022/11/12 04:39:14;;;;;;;6.20;2.70;;;;;;;;;;5059214;28;20031;-74
2022/11/12 04:47:10;;;;;;;7.13;3.97;;;;;;;;;;5057512;28;20036;-74
2022/11/12 04:49:36;;;;;;;6.05;2.50;;;;;;;;;;5063938;28;20052;-76
2022/11/12 04:52:05;;;;;;;3.30;2.22;;;;;;;;;;5084120;28;20431;-74
2022/11/12 04:54:32;;;;;;;9.02;2.70;;;;;;;;;;5069751;28;20127;-75
2022/11/12 04:56:59;;;;;;;8.48;3.53;;;;;;;;;;5080376;28;20021;-75
2022/11/12 04:59:25;;;;;;;9.20;3.13;;;;;;;;;;5069912;28;20232;-74
2022/11/12 05:01:51;;;;;;;8.75;2.30;;;;;;;;;;5082229;28;20031;-75
2022/11/12 05:04:17;;;;;;;6.35;2.42;;;;;;;;;;5071866;28;20081;-74
2022/11/12 05:06:53;;;;;;;8.55;2.90;;;;;;;;;;5064860;28;20056;-74
2022/11/12 05:09:23;;;;;;;10.18;3.33;;;;;;;;;;5063886;28;20024;-74
2022/11/12 05:11:49;;;;;;;8.38;2.65;;;;;;;;;;5069602;28;20021;-73
2022/11/12 05:14:16;;;;;;;7.88;3.28;;;;;;;;;;5063757;28;20581;-74
2022/11/12 05:16:42;;;;;;;8.55;2.72;;;;;;;;;;5068349;28;20390;-75
2022/11/12 05:19:08;;;;;;;6.68;2.42;;;;;;;;;;5080369;28;20017;-74
2022/11/12 05:24:19;;;;;;;10.55;3.28;;;;;;;;;;5070461;28;20061;-75
2022/11/12 05:26:45;;;;;;;4.30;3.47;;;;;;;;;;5069436;28;20052;-76
2022/11/12 05:29:11;;;;;;;4.93;2.75;;;;;;;;;;5069943;28;20020;-74
2022/11/12 05:31:37;;;;;;;8.98;2.53;;;;;;;;;;5069862;28;20104;-75
2022/11/12 05:34:03;;;;;;;10.02;2.75;;;;;;;;;;5067366;28;20029;-73
2022/11/12 05:36:29;;;;;;;4.28;3.28;;;;;;;;;;5068050;28;20476;-74
2022/11/12 05:38:56;;;;;;;6.30;2.38;;;;;;;;;;5084404;28;20201;-75
2022/11/12 05:41:22;;;;;;;8.43;3.05;;;;;;;;;;5067753;28;20032;-76
2022/11/12 05:43:48;;;;;;;4.57;2.20;;;;;;;;;;5078864;28;20036;-75
2022/11/12 05:46:14;;;;;;;7.72;2.45;;;;;;;;;;5069575;28;20034;-74
2022/11/12 05:48:40;;;;;;;15.20;2.97;;;;;;;;;;5068504;28;20013;-75
2022/11/12 05:51:06;;;;;;;8.25;2.78;;;;;;;;;;5064090;28;20511;-75
2022/11/12 05:53:32;;;;;;;9.35;2.78;;;;;;;;;;5061536;28;20028;-75
2022/11/12 05:56:02;;;;;;;6.38;3.47;;;;;;;;;;5067452;28;20029;-74
2022/11/12 05:58:28;;;;;;;11.98;3.65;;;;;;;;;;5058344;28;20028;-76
2022/11/12 06:00:54;;;;;;;8.77;3.10;;;;;;;;;;5064106;28;20025;-74
2022/11/12 06:03:20;;;;;;;7.28;2.80;;;;;;;;;;5067421;28;20025;-76
2022/11/12 06:05:46;;;;;;;8.95;3.30;;;;;;;;;;5068215;28;20028;-74
2022/11/12 06:08:12;;;;;;;7.78;3.42;;;;;;;;;;5068407;28;20445;-74
2022/11/12 06:10:39;;;;;;;7.75;2.38;;;;;;;;;;5082330;28;20056;-78
2022/11/12 06:13:05;;;;;;;6.57;3.38;;;;;;;;;;5070398;28;20021;-74
2022/11/12 06:15:32;;;;;;;5.65;2.50;;;;;;;;;;5069119;28;20032;-75
2022/11/12 06:17:58;;;;;;;4.88;2.00;;;;;;;;;;5081013;28;20086;-77
2022/11/12 06:20:24;;;;;;;6.10;2.50;;;;;;;;;;5065040;28;20115;-75
2022/11/12 06:22:50;;;;;;;4.10;2.30;;;;;;;;;;5086216;28;20020;-75
2022/11/12 06:25:17;;;;;;;8.05;2.42;;;;;;;;;;5068094;28;20508;-74
2022/11/12 06:27:43;;;;;;;5.53;2.25;;;;;;;;;;5065836;28;20098;-75
2022/11/12 06:30:10;;;;;;;3.47;1.83;;;;;;;;;;5068168;28;20076;-76
2022/11/12 06:32:36;;;;;;;4.03;2.13;;;;;;;;;;5060056;28;20061;-77
2022/11/12 06:35:02;;;;;;;5.18;1.92;;;;;;;;;;5067126;28;20028;-75
2022/11/12 06:37:28;;;;;;;3.88;2.22;;;;;;;;;;5076481;28;20036;-75
2022/11/12 06:39:55;;;;;;;4.55;1.80;;;;;;;;;;5058929;28;20663;-74
2022/11/12 06:42:21;;;;;;;3.58;1.90;;;;;;;;;;5065573;28;20121;-77
2022/11/12 06:44:47;;;;;;;6.30;1.92;;;;;;;;;;5058982;28;20070;-75
2022/11/12 06:47:13;;;;;;;1.95;1.75;;;;;;;;;;5069479;28;20031;-75
2022/11/12 06:49:39;;;;;;;3.35;1.80;;;;;;;;;;5067426;28;20029;-74
2022/11/12 06:52:05;;;;;;;4.03;1.65;;;;;;;;;;5076102;28;20029;-75
2022/11/12 06:54:31;;;;;;;2.75;1.90;;;;;;;;;;5062694;28;20043;-74
2022/11/12 06:56:57;;;;;;;3.25;1.77;;;;;;;;;;5065722;28;20064;-76
2022/11/12 06:59:23;;;;;;;2.50;1.77;;;;;;;;;;5064337;28;20423;-75
2022/11/12 07:01:49;;;;;;;3.75;1.95;;;;;;;;;;5063427;28;20117;-75
2022/11/12 07:04:16;;;;;;;4.43;1.50;;;;;;;;;;5064623;28;20025;-78
2022/11/12 07:06:42;;;;;;;1.90;1.65;;;;;;;;;;5064406;28;20416;-78
2022/11/12 07:09:08;;;;;;;2.83;1.80;;;;;;;;;;5063730;28;20021;-76
2022/11/12 07:11:34;;;;;;;2.53;1.80;;;;;;;;;;5067227;28;20095;-74
2022/11/12 07:14:00;;;;;;;2.97;1.90;;;;;;;;;;5067460;28;20493;-77
2022/11/12 07:16:26;;;;;;;2.92;1.80;;;;;;;;;;5063445;28;20039;-74
2022/11/12 07:18:52;;;;;;;3.65;1.70;;;;;;;;;;5065617;28;20016;-76
2022/11/12 07:21:19;;;;;;;1.77;1.52;;;;;;;;;;5065130;28;20024;-75
2022/11/12 07:23:46;;;;;;;1.98;1.60;;;;;;;;;;5068107;28;20020;-75
2022/11/12 07:26:12;;;;;;;2.83;2.30;;;;;;;;;;5080363;28;20032;-75
2022/11/12 07:28:38;;;;;;;3.10;2.45;;;;;;;;;;5067450;28;20024;-74
2022/11/12 07:31:06;;;;;;;2.00;1.70;;;;;;;;;;5066543;28;20469;-74
2022/11/12 07:33:33;;;;;;;2.22;1.80;;;;;;;;;;5083025;28;20031;-73
2022/11/12 07:36:00;;;;;;;6.93;2.25;;;;;;;;;;5079887;28;20029;-74
2022/11/12 07:38:27;;;;;;;3.85;2.08;;;;;;;;;;5067647;28;20082;-77
2022/11/12 07:40:58;;;;;;;4.20;2.28;;;;;;;;;;5069724;28;20384;-73
2022/11/12 07:43:29;;;;;;;10.30;2.88;;;;;;;;;;5081499;28;20170;-73
2022/11/12 07:46:24;;;;;;;7.03;2.97;;;;;;;;;;5082355;28;20111;-74
2022/11/12 07:48:51;;;;;;;10.93;2.83;;;;;;;;;;5066251;28;20174;-75
2022/11/12 07:51:21;;;;;;;5.30;2.50;;;;;;;;;;5066937;28;20423;-74
2022/11/12 07:53:48;;;;;;;8.02;2.50;;;;;;;;;;5075847;28;20109;-75
2022/11/12 07:56:16;;;;;;;7.10;2.67;;;;;;;;;;5064106;28;20033;-74
2022/11/12 07:58:42;;;;;;;4.47;3.47;;;;;;;;;;5064917;28;20048;-74
2022/11/12 08:01:23;;;;;;;5.53;2.53;;;;;;;;;;5077010;28;20024;-75
2022/11/12 08:03:49;;;;;;;6.50;3.30;;;;;;;;;;5064243;28;20024;-74
2022/11/12 08:06:16;;;;;;;8.80;3.60;;;;;;;;;;5067193;28;20150;-78
2022/11/12 08:08:42;;;;;;;7.32;2.58;;;;;;;;;;5063306;28;20489;-79
2022/11/12 08:11:08;;;;;;;8.40;2.70;;;;;;;;;;5065591;28;20067;-75
2022/11/12 08:13:34;;;;;;;4.85;3.00;;;;;;;;;;5065221;28;20043;-74
2022/11/12 08:16:00;;;;;;;7.13;3.63;;;;;;;;;;5083796;28;20025;-73
2022/11/12 08:18:27;;;;;;;4.80;2.70;;;;;;;;;;5082066;28;20039;-74
2022/11/12 08:20:59;;;;;;;5.78;2.85;;;;;;;;;;5081960;28;20059;-74
2022/11/12 08:23:25;;;;;;;6.78;2.83;;;;;;;;;;5076070;28;20536;-76
2022/11/12 08:25:51;;;;;;;5.07;3.15;;;;;;;;;;5063648;28;20033;-78
2022/11/12 08:28:17;;;;;;;7.68;3.13;;;;;;;;;;5062754;28;20079;-77
2022/11/12 08:30:43;;;;;;;9.60;3.53;;;;;;;;;;5067162;28;20504;-81
2022/11/12 08:33:09;;;;;;;7.68;3.00;;;;;;;;;;5064081;28;20059;-79
2022/11/12 08:35:37;;;;;;;5.55;2.70;;;;;;;;;;5081320;28;20469;-81
2022/11/12 08:38:06;;;;;;;4.13;2.80;;;;;;;;;;5084930;28;20458;-80
2022/11/12 08:40:33;;;;;;;5.13;2.67;;;;;;;;;;5083755;28;20035;-79
2022/11/12 08:42:59;;;;;;;6.72;3.53;;;;;;;;;;5063233;28;20111;-77
2022/11/12 08:45:26;;;;;;;4.65;3.47;;;;;;;;;;5069661;28;20506;-78
2022/11/12 08:47:52;;;;;;;8.20;3.42;;;;;;;;;;5069316;28;20025;-78
2022/11/12 08:50:19;;;;;;;6.55;3.00;;;;;;;;;;5070550;28;20047;-78
2022/11/12 08:52:45;;;;;;;5.60;2.83;;;;;;;;;;5067650;28;20025;-78
2022/11/12 08:55:11;;;;;;;8.57;3.42;;;;;;;;;;5063942;28;20495;-79
2022/11/12 08:57:41;;;;;;;6.60;3.20;;;;;;;;;;5068632;28;20086;-78
2022/11/12 09:00:09;;;;;;;10.63;3.28;;;;;;;;;;5068074;28;20095;-77
2022/11/12 09:02:35;;;;;;;6.82;2.63;;;;;;;;;;5067295;28;20088;-78
2022/11/12 09:05:01;;;;;;;9.98;3.35;;;;;;;;;;5067933;28;20033;-78
2022/11/12 09:07:27;;;;;;;7.28;3.28;;;;;;;;;;5083900;28;20610;-78
2022/11/12 09:09:53;;;;;;;6.00;2.70;;;;;;;;;;5068719;28;20028;-79
2022/11/12 09:12:19;;;;;;;5.05;2.88;;;;;;;;;;5067610;28;20025;-81
2022/11/12 09:14:46;;;;;;;9.98;2.80;;;;;;;;;;5069939;28;20029;-79
2022/11/12 09:17:12;;;;;;;3.80;2.70;;;;;;;;;;5065481;28;20040;-79
2022/11/12 09:19:38;;;;;;;5.85;2.78;;;;;;;;;;5065997;28;20372;-79
2022/11/12 09:22:04;;;;;;;6.65;2.80;;;;;;;;;;5065833;28;20040;-78
2022/11/12 09:24:30;;;;;;;6.20;2.45;;;;;;;;;;5065951;28;20377;-80
2022/11/12 09:26:56;;;;;;;6.78;2.85;;;;;;;;;;5068632;28;20462;-78
2022/11/12 09:29:22;;;;;;;6.63;2.83;;;;;;;;;;5083375;28;20109;-78
2022/11/12 09:31:49;;;;;;;4.57;2.90;;;;;;;;;;5059642;28;20031;-78
2022/11/12 09:34:15;;;;;;;5.85;2.78;;;;;;;;;;5068760;28;20484;-79
2022/11/12 09:36:41;;;;;;;6.85;3.88;;;;;;;;;;5078079;28;20040;-78
2022/11/12 09:39:07;;;;;;;6.55;2.80;;;;;;;;;;5070385;28;20032;-78
2022/11/12 09:41:38;;;;;;;7.07;2.78;;;;;;;;;;5068923;28;20032;-78
2022/11/12 09:44:08;;;;;;;8.50;2.60;;;;;;;;;;5063648;28;20029;-78
2022/11/12 09:46:48;;;;;;;7.53;2.28;;;;;;;;;;5061605;28;20070;-78
2022/11/12 09:49:28;;;;;;;7.75;3.05;;;;;;;;;;5075969;28;20484;-78
2022/11/12 09:51:56;;;;;;;4.47;2.55;;;;;;;;;;5067925;28;20032;-77
2022/11/12 09:54:23;;;;;;;8.18;2.78;;;;;;;;;;5064929;28;20085;-78
2022/11/12 09:56:50;;;;;;;5.65;2.75;;;;;;;;;;5065920;28;20036;-77
2022/11/12 09:59:16;;;;;;;4.00;2.58;;;;;;;;;;5064654;28;20036;-78
2022/11/12 10:01:48;;;;;;;10.32;2.78;;;;;;;;;;5063710;28;20025;-79
2022/11/12 10:04:33;;;;;;;5.47;2.97;;;;;;;;;;5066201;28;20036;-78
2022/11/12 10:07:03;;;;;;;8.15;2.55;;;;;;;;;;5079569;28;20039;-78
2022/11/12 10:09:41;;;;;;;8.80;3.15;;;;;;;;;;5068749;28;20043;-77
2022/11/12 10:18:15;;;;;;;8.05;2.58;;;;;;;;;;5059751;28;20032;-78
2022/11/12 10:21:13;;;;;;;6.00;2.50;;;;;;;;;;5064720;28;20122;-79
2022/11/12 10:23:46;;;;;;;9.00;3.60;;;;;;;;;;5034308;28;20037;-75
2022/11/12 10:26:14;;;;;;;10.18;2.50;;;;;;;;;;5082448;28;20117;-77
2022/11/12 10:28:48;;;;;;;7.65;2.90;;;;;;;;;;5065263;28;20119;-78
2022/11/12 10:31:15;;;;;;;6.15;3.45;;;;;;;;;;5069744;28;20031;-79
2022/11/12 10:33:41;;;;;;;6.10;2.78;;;;;;;;;;5063541;28;20032;-78
2022/11/12 10:36:13;;;;;;;5.75;2.85;;;;;;;;;;5083303;28;20040;-78
2022/11/12 10:38:41;;;;;;;6.65;2.67;;;;;;;;;;5065604;28;20036;-80
2022/11/12 10:41:25;;;;;;;6.50;3.05;;;;;;;;;;5066496;28;20107;-78
2022/11/12 10:44:05;;;;;;;5.47;2.92;;;;;;;;;;5080941;28;20028;-78
2022/11/12 10:46:32;;;;;;;5.82;2.60;;;;;;;;;;5080393;28;20035;-77
2022/11/12 10:49:00;;;;;;;6.97;2.78;;;;;;;;;;5079516;28;20044;-77
2022/11/12 10:51:34;;;;;;;7.65;2.50;;;;;;;;;;5065413;28;20462;-77
2022/11/12 10:54:21;;;;;;;7.30;3.20;;;;;;;;;;5062922;28;20021;-78
2022/11/12 10:56:48;;;;;;;5.53;2.75;;;;;;;;;;5059778;28;20484;-79
2022/11/12 10:59:22;;;;;;;5.10;3.00;;;;;;;;;;5082149;28;20020;-78
2022/11/12 11:01:58;;;;;;;4.50;2.58;;;;;;;;;;5080344;28;20036;-78
2022/11/12 11:04:35;;;;;;;3.75;2.38;;;;;;;;;;5066981;28;20028;-80
2022/11/12 11:07:06;;;;;;;4.97;2.60;;;;;;;;;;5065676;28;20085;-79
2022/11/12 11:09:33;;;;;;;4.45;2.60;;;;;;;;;;5064296;28;20128;-79
2022/11/12 11:11:59;;;;;;;8.10;3.10;;;;;;;;;;5067889;28;20028;-79
2022/11/12 11:14:28;;;;;;;8.68;4.05;;;;;;;;;;5061928;28;20362;-79
2022/11/12 11:17:07;;;;;;;7.80;3.75;;;;;;;;;;5064250;28;20052;-80
2022/11/12 11:19:41;;;;;;;10.15;3.00;;;;;;;;;;5080443;28;20035;-78
2022/11/12 11:22:26;;;;;;;6.05;2.63;;;;;;;;;;5067500;28;20032;-78
2022/11/12 11:25:02;;;;;;;5.20;2.78;;;;;;;;;;5064766;28;20401;-78
2022/11/12 11:27:37;;;;;;;6.25;2.95;;;;;;;;;;5061317;28;20052;-78
2022/11/12 11:30:10;;;;;;;6.50;2.72;;;;;;;;;;5079440;28;20032;-79
2022/11/12 11:32:36;;;;;;;5.00;2.63;;;;;;;;;;5064573;28;20513;-79
2022/11/12 11:35:02;;;;;;;5.22;3.00;;;;;;;;;;5066738;28;20029;-85
2022/11/12 11:37:36;;;;;;;5.68;2.40;;;;;;;;;;5064888;28;20111;-84
2022/11/12 11:40:02;;;;;;;5.93;2.75;;;;;;;;;;5067312;28;20040;-82
2022/11/12 11:42:29;;;;;;;7.82;2.78;;;;;;;;;;5063408;28;20043;-80
2022/11/12 11:45:09;;;;;;;4.13;2.40;;;;;;;;;;5064735;28;20494;-80
2022/11/12 11:47:44;;;;;;;6.65;2.95;;;;;;;;;;5075800;28;20028;-83
2022/11/12 11:50:10;;;;;;;5.85;2.72;;;;;;;;;;5080883;28;20024;-79
2022/11/12 11:52:43;;;;;;;4.20;2.20;;;;;;;;;;5079949;28;20041;-82
2022/11/12 11:55:17;;;;;;;10.10;3.13;;;;;;;;;;5074082;28;20020;-80
2022/11/12 11:58:02;;;;;;;7.75;2.55;;;;;;;;;;5065648;28;20059;-83
2022/11/12 12:00:57;;;;;;;8.10;2.72;;;;;;;;;;5077419;28;20036;-79
2022/11/12 12:03:24;;;;;;;4.03;2.80;;;;;;;;;;5058244;28;20079;-78
2022/11/12 12:05:58;;;;;;;6.40;3.00;;;;;;;;;;5066110;28;20515;-80
2022/11/12 12:08:24;;;;;;;6.72;3.00;;;;;;;;;;5066751;28;20027;-81
2022/11/12 12:11:03;;;;;;;6.57;3.30;;;;;;;;;;5063649;28;20486;-79
2022/11/12 12:13:35;;;;;;;5.05;3.05;;;;;;;;;;5081463;28;20055;-76
2022/11/12 12:16:20;;;;;;;5.97;3.33;;;;;;;;;;5068640;28;20131;-78
2022/11/12 12:19:22;;;;;;;6.13;3.05;;;;;;;;;;5072153;28;20039;-84
2022/11/12 12:21:50;;;;;;;7.18;3.53;;;;;;;;;;5031302;28;20131;-85
2022/11/12 12:24:22;;;;;;;6.18;3.17;;;;;;;;;;5062794;28;20040;-80
2022/11/12 12:26:54;;;;;;;5.95;3.10;;;;;;;;;;5067382;28;20139;-81
2022/11/12 12:29:23;;;;;;;5.95;2.80;;;;;;;;;;5083822;28;20012;-79
2022/11/12 12:31:58;;;;;;;6.13;3.38;;;;;;;;;;5070203;28;20028;-82
2022/11/12 12:34:31;;;;;;;4.30;2.80;;;;;;;;;;5087539;28;20093;-81
2022/11/12 12:37:04;;;;;;;3.95;3.20;;;;;;;;;;5082600;28;20109;-79
2022/11/12 12:39:42;;;;;;;6.13;2.80;;;;;;;;;;5062476;28;20028;-81
2022/11/12 12:42:19;;;;;;;6.13;2.97;;;;;;;;;;5079533;28;20056;-79
2022/11/12 12:44:59;;;;;;;6.60;3.60;;;;;;;;;;5065892;28;20025;-82
2022/11/12 12:47:27;;;;;;;6.60;3.78;;;;;;;;;;5062314;28;20017;-83
2022/11/12 12:49:54;;;;;;;6.97;3.70;;;;;;;;;;5065292;28;20119;-82
2022/11/12 12:52:20;;;;;;;5.63;3.20;;;;;;;;;;5068888;28;20549;-79
2022/11/12 12:54:52;;;;;;;6.57;3.17;;;;;;;;;;5070542;28;20025;-79
2022/11/12 12:57:27;;;;;;;6.35;3.28;;;;;;;;;;5060006;28;20038;-81
2022/11/12 13:00:12;;;;;;;9.25;4.20;;;;;;;;;;5081502;28;20103;-83
2022/11/12 13:02:38;;;;;;;8.73;4.17;;;;;;;;;;5073694;28;20031;-84
2022/11/12 13:05:04;;;;;;;7.82;3.75;;;;;;;;;;5065959;28;20271;-84
2022/11/12 13:07:42;;;;;;;4.63;3.25;;;;;;;;;;5070463;28;20036;-83
2022/11/12 13:10:26;;;;;;;4.93;3.50;;;;;;;;;;5065611;28;20078;-80
2022/11/12 13:13:22;;;;;;;7.60;3.85;;;;;;;;;;5082641;28;20025;-81
2022/11/12 13:15:49;;;;;;;4.80;3.53;;;;;;;;;;5069081;28;20025;-81
2022/11/12 13:18:34;;;;;;;9.65;4.47;;;;;;;;;;5067270;28;20103;-85
2022/11/12 13:21:26;;;;;;;15.70;7.43;;;;;;;;;;5064221;28;20021;-84
2022/11/12 13:24:06;;;;;;;10.82;3.70;;;;;;;;;;5082875;28;20508;-79
2022/11/12 13:26:49;;;;;;;8.40;4.60;;;;;;;;;;5067609;28;20542;-86
2022/11/12 13:29:18;;;;;;;14.90;8.68;;;;;;;;;;5070200;28;20104;-84
2022/11/12 13:31:45;;;;;;;6.72;4.20;;;;;;;;;;5067621;28;20016;-82
2022/11/12 13:34:37;;;;;;;7.35;4.25;;;;;;;;;;5082442;28;20154;-80
2022/11/12 13:37:04;;;;;;;7.70;3.47;;;;;;;;;;5065838;28;20049;-79
2022/11/12 13:39:35;;;;;;;6.40;3.33;;;;;;;;;;5080483;28;20033;-82
2022/11/12 13:44:53;;;;;;;6.30;3.63;;;;;;;;;;5070753;28;20035;-81
2022/11/12 13:47:20;;;;;;;5.35;3.17;;;;;;;;;;5083233;28;20056;-82
2022/11/12 13:49:47;;;;;;;5.55;3.28;;;;;;;;;;5082515;28;20104;-82
2022/11/12 13:52:14;;;;;;;7.38;3.42;;;;;;;;;;5070015;28;20032;-83
2022/11/12 13:54:41;;;;;;;7.20;3.58;;;;;;;;;;5068959;28;20107;-79
2022/11/12 13:57:25;;;;;;;7.57;4.05;;;;;;;;;;5067599;28;20386;-82
2022/11/12 14:00:10;;;;;;;3.90;3.50;;;;;;;;;;5064707;28;20029;-84
2022/11/12 14:02:38;;;;;;;6.17;3.93;;;;;;;;;;5055788;28;20062;-82
2022/11/12 14:05:12;;;;;;;21.13;9.40;;;;;;;;;;5062972;28;20043;-82
2022/11/12 14:07:41;;;;;;;11.52;6.55;;;;;;;;;;5083929;28;20028;-81
2022/11/12 14:10:26;;;;;;;8.98;6.03;;;;;;;;;;5073554;28;20036;-82
2022/11/12 14:13:10;;;;;;;4.80;3.50;;;;;;;;;;5067547;28;20031;-84
2022/11/12 14:15:55;;;;;;;7.40;4.78;;;;;;;;;;5068404;28;20032;-82
2022/11/12 14:18:40;;;;;;;8.67;4.60;;;;;;;;;;5064125;28;20032;-82
2022/11/12 14:21:10;;;;;;;4.57;3.10;;;;;;;;;;5069396;28;20028;-83
2022/11/12 14:23:37;;;;;;;5.28;3.45;;;;;;;;;;5083949;28;20032;-83
2022/11/12 14:26:03;;;;;;;6.20;4.20;;;;;;;;;;5066035;28;20028;-83
2022/11/12 14:28:35;;;;;;;7.65;3.88;;;;;;;;;;5068884;28;20033;-83
2022/11/12 14:31:02;;;;;;;5.30;3.15;;;;;;;;;;5088992;28;20083;-81
2022/11/12 14:33:29;;;;;;;6.07;4.13;;;;;;;;;;5062526;28;20564;-85
2022/11/12 14:36:06;;;;;;;5.38;3.30;;;;;;;;;;5064387;28;20024;-80
2022/11/12 14:38:49;;;;;;;5.95;3.47;;;;;;;;;;5079463;28;20107;-82
2022/11/12 14:41:19;;;;;;;6.65;3.80;;;;;;;;;;5084354;28;20059;-82
2022/11/12 14:43:50;;;;;;;14.63;8.35;;;;;;;;;;5065813;28;20072;-83
2022/11/12 14:46:24;;;;;;;11.80;6.07;;;;;;;;;;5069736;28;20063;-84
2022/11/12 14:49:11;;;;;;;5.78;2.85;;;;;;;;;;5062728;28;20039;-82
2022/11/12 14:51:42;;;;;;;5.00;3.70;;;;;;;;;;5068691;28;20024;-84
2022/11/12 14:54:10;;;;;;;4.63;3.08;;;;;;;;;;5069681;28;20032;-82
2022/11/12 14:56:39;;;;;;;4.95;3.20;;;;;;;;;;5070763;28;20012;-82
2022/11/12 14:59:05;;;;;;;9.40;4.28;;;;;;;;;;5069393;28;20455;-81
2022/11/12 15:01:33;;;;;;;7.10;3.70;;;;;;;;;;5072981;28;20036;-82
2022/11/12 15:04:12;;;;;;;6.70;3.42;;;;;;;;;;5068484;28;20032;-84
2022/11/12 15:06:38;;;;;;;8.48;3.95;;;;;;;;;;5063843;28;20150;-79
2022/11/12 15:09:05;;;;;;;6.57;4.07;;;;;;;;;;5085693;28;20074;-83
2022/11/12 15:11:36;;;;;;;5.00;3.45;;;;;;;;;;5070802;28;20031;-84
2022/11/12 15:14:03;;;;;;;8.65;4.93;;;;;;;;;;5072032;28;20047;-84
2022/11/12 15:16:33;;;;;;;8.77;3.90;;;;;;;;;;5077352;28;20035;-83
2022/11/12 15:18:59;;;;;;;8.45;4.15;;;;;;;;;;5065666;28;20025;-81
2022/11/12 15:21:27;;;;;;;9.10;3.92;;;;;;;;;;5068975;28;20050;-79
2022/11/12 15:23:57;;;;;;;5.78;3.60;;;;;;;;;;5063082;28;20020;-80
2022/11/12 15:26:26;;;;;;;4.80;3.47;;;;;;;;;;5058814;28;20097;-84
2022/11/12 15:29:02;;;;;;;8.35;3.67;;;;;;;;;;5063301;28;20085;-82
2022/11/12 15:31:29;;;;;;;5.13;3.63;;;;;;;;;;5069801;28;20028;-80